Decoded Metar for KJAC (JACKSON in WY, USA) (IATA:JAC) | Meteo·Mobile Aviation Weather
aviador You're here:

KJAC Decoded Metar

JACKSON in WY, USA
Report Time2019-03-21 21:56:00
UTC Time2019-03-21 22:17:14
Flight Rules vfr VFR
WindCalm
Visibility9999 m
Phenomena:N/A
Clouds:N/A
Expected CloudBase > 4,800 ft AGL from Temp-Dew spread
CeilingNone
Temp05°C (ISA +3)
Dew Point-7°C (42% RH)
AAT2.2°C
QNH1016 hPa
Density Alt6,722 ft
Elevation6,434 ft
Report Wrong Elevation
Raw Report
KJAC 212156Z 00000KT 10SM CLR 05/M07 A2999 RMK AO2 SLP202
T00501067=

Extra information for KJAC:More info

Metar Taf Metar & Taf Last 4 Metars F.Rules Stats Wind Profile Meteogram Temp Stats Airport Information Weather charts Add Link Nearby VenuesMetar ALERT Operation Metar Decoded Social comments

AIRNAV info for KJAC